createdAt,value
2022-08-26T00:05:45.719Z,99891.19
2022-08-26T00:20:37.839Z,99895.02
2022-08-26T00:35:29.172Z,99892.88
2022-08-26T00:50:20.533Z,99898.80
2022-08-26T01:05:12.131Z,99892.00
2022-08-26T01:20:11.497Z,99898.58
2022-08-26T01:35:06.240Z,99895.19
2022-08-26T01:49:58.277Z,99899.48
2022-08-26T02:04:50.264Z,99910.95
2022-08-26T02:19:45.522Z,99914.08
2022-08-26T02:34:37.005Z,99912.91
2022-08-26T02:49:27.824Z,99926.83
2022-08-26T03:04:19.945Z,99919.85
2022-08-26T03:19:11.850Z,99919.38
2022-08-26T03:34:03.459Z,99924.94
2022-08-26T03:48:54.670Z,99921.80
2022-08-26T04:33:46.668Z,99925.73
2022-08-26T04:48:38.318Z,99931.67
2022-08-26T05:03:30.522Z,99948.86
2022-08-26T05:18:22.819Z,99959.95
2022-08-26T05:33:13.399Z,99968.32
2022-08-26T05:48:07.097Z,99980.30
2022-08-26T06:03:01.834Z,99996.39
2022-08-26T06:17:54.087Z,99997.38
2022-08-26T06:32:46.345Z,99994.44
2022-08-26T06:47:38.528Z,99995.83
2022-08-26T07:02:31.410Z,100004.56
2022-08-26T07:17:24.979Z,100019.70
2022-08-26T07:32:17.100Z,100029.92
2022-08-26T07:47:10.148Z,100030.27
2022-08-26T08:02:02.318Z,100034.80
2022-08-26T08:16:54.744Z,100029.83
2022-08-26T08:31:56.917Z,100020.04
2022-08-26T08:46:37.301Z,100026.89
2022-08-26T09:01:53.893Z,100014.29
2022-08-26T09:16:49.959Z,100007.59
2022-08-26T09:31:43.186Z,100003.45
2022-08-26T09:46:36.807Z,99986.56
2022-08-26T10:01:30.190Z,99957.52
2022-08-26T10:16:23.077Z,99932.59
2022-08-26T10:31:29.383Z,99918.86
2022-08-26T10:46:27.581Z,99908.30
2022-08-26T11:01:42.464Z,99905.62
2022-08-26T11:16:43.376Z,99877.13
2022-08-26T11:31:40.035Z,99869.27
2022-08-26T11:46:36.106Z,99845.18
2022-08-26T12:01:31.804Z,99825.19
2022-08-26T12:16:28.255Z,99839.48
2022-08-26T12:31:39.726Z,99846.91
2022-08-26T12:46:38.385Z,99819.22
2022-08-26T13:01:36.898Z,99791.33
2022-08-26T13:16:34.798Z,99760.09
2022-08-26T13:31:27.962Z,99754.53
2022-08-26T13:46:20.515Z,99763.47
2022-08-26T14:01:10.747Z,99773.63
2022-08-26T14:16:01.836Z,99761.22
2022-08-26T14:30:54.509Z,99744.60
2022-08-26T14:45:48.176Z,99752.52
2022-08-26T15:00:40.369Z,99777.81
2022-08-26T15:15:32.074Z,99805.67
2022-08-26T15:30:22.454Z,99804.34
2022-08-26T15:45:13.881Z,99824.16
2022-08-26T16:00:05.679Z,99799.44
2022-08-26T16:14:57.467Z,99872.42
2022-08-26T16:29:49.549Z,99863.53
2022-08-26T16:44:46.658Z,99871.87
2022-08-26T16:59:41.985Z,99957.92
2022-08-26T17:14:29.184Z,99967.97
2022-08-26T17:29:19.674Z,99972.23
2022-08-26T17:44:10.552Z,99971.67
2022-08-26T17:59:04.075Z,99928.67
2022-08-26T18:43:35.059Z,100044.09
2022-08-26T18:58:27.903Z,99988.50
2022-08-26T19:13:17.267Z,99990.97
2022-08-26T19:28:12.351Z,99985.44
2022-08-26T19:43:09.273Z,100016.05
2022-08-26T19:58:08.314Z,100042.59
2022-08-26T20:12:55.864Z,100036.70
2022-08-26T20:27:48.715Z,100045.39
2022-08-26T20:42:40.908Z,100078.62
2022-08-26T20:57:33.638Z,100070.61
2022-08-26T21:12:30.201Z,100084.87
2022-08-26T21:27:26.083Z,100072.48
2022-08-26T21:42:10.180Z,100080.61
2022-08-26T21:57:02.443Z,100092.38
2022-08-26T22:11:54.877Z,100112.50
2022-08-26T22:26:46.639Z,100132.08
2022-08-26T22:41:39.462Z,100136.19
2022-08-26T22:56:31.468Z,100143.44
2022-08-26T23:11:23.526Z,100145.00
2022-08-26T23:26:17.741Z,100142.34
2022-08-26T23:41:08.811Z,100139.55
2022-08-26T23:56:01.288Z,100147.34
